Time;durP1;ratioP1;P1;durP2;ratioP2;P2;SDS_P1;SDS_P2;PMS_P1;PMS_P2;Temp;Humidity;BMP_temperature;BMP_pressure;BME280_temperature;BME280_humidity;BME280_pressure;Samples;Min_cycle;Max_cycle;Signal;HPM_P1;HPM_P2
2021/09/27 00:01:19;;;;;;;44.10;26.80;;;;;;;14.54;96.62;99370.64;4280757;82;21100;-83
2021/09/27 00:07:21;;;;;;;50.20;28.83;;;;;;;14.54;96.84;99377.53;4293454;82;21545;-84
2021/09/27 00:13:39;;;;;;;47.35;27.45;;;;;;;14.50;96.82;99370.44;4280622;82;21382;-83
2021/09/27 00:19:40;;;;;;;46.75;28.38;;;;;;;14.49;97.56;99372.98;4280654;82;21132;-83
2021/09/27 00:25:42;;;;;;;47.15;27.77;;;;;;;14.42;97.01;99377.11;4293006;82;21123;-83
2021/09/27 00:31:44;;;;;;;47.20;26.93;;;;;;;14.38;97.11;99370.80;4281516;83;21501;-83
2021/09/27 00:37:45;;;;;;;42.70;25.17;;;;;;;14.35;97.43;99372.38;4281945;82;21096;-83
2021/09/27 00:43:50;;;;;;;46.58;26.45;;;;;;;14.35;97.35;99368.82;4280955;82;21670;-84
2021/09/27 00:49:52;;;;;;;46.23;25.97;;;;;;;14.32;97.70;99373.73;4281212;81;21009;-83
2021/09/27 00:55:56;;;;;;;49.30;26.80;;;;;;;14.34;98.04;99379.07;4356997;80;21021;-83
2021/09/27 01:01:58;;;;;;;49.10;27.30;;;;;;;14.34;97.90;99376.31;4373187;80;21437;-83
2021/09/27 01:08:32;;;;;;;48.58;28.07;;;;;;;14.34;98.24;99376.90;4364933;80;21095;-83
2021/09/27 01:15:13;;;;;;;44.93;25.57;;;;;;;14.35;98.27;99377.88;4298873;82;21103;-83
2021/09/27 01:21:43;;;;;;;40.15;25.72;;;;;;;14.31;98.30;99371.59;4429929;79;21046;-83
2021/09/27 01:28:16;;;;;;;45.15;26.80;;;;;;;14.32;98.48;99368.23;4180346;84;21349;-83
2021/09/27 01:34:30;;;;;;;44.85;27.22;;;;;;;14.30;98.62;99356.23;4185595;84;21698;-85
2021/09/27 01:41:12;;;;;;;47.62;26.10;;;;;;;14.27;98.50;99361.14;4188657;84;21816;-83
2021/09/27 01:47:26;;;;;;;47.95;28.15;;;;;;;14.22;98.57;99357.97;4134826;85;21056;-84
2021/09/27 01:53:53;;;;;;;49.73;30.32;;;;;;;14.20;99.04;99355.00;4177658;84;21013;-85
2021/09/27 02:00:22;;;;;;;50.95;30.10;;;;;;;14.18;99.05;99342.23;4192103;83;21111;-84
2021/09/27 02:06:44;;;;;;;51.68;30.10;;;;;;;14.15;99.00;99344.39;4133121;85;21003;-84
2021/09/27 02:13:01;;;;;;;44.40;27.37;;;;;;;14.14;99.21;99331.78;4175307;85;21043;-84
2021/09/27 02:19:21;;;;;;;48.68;27.27;;;;;;;14.08;100.00;99340.23;4186082;84;21060;-84
2021/09/27 02:25:37;;;;;;;45.80;26.52;;;;;;;14.04;100.00;99336.69;4171718;84;21036;-85
2021/09/27 02:32:26;;;;;;;41.50;25.20;;;;;;;14.07;100.00;99351.05;4196840;83;20999;-85
2021/09/27 02:39:05;;;;;;;40.63;24.32;;;;;;;14.10;100.00;99343.97;4161864;85;21114;-85
2021/09/27 02:45:10;;;;;;;46.20;25.35;;;;;;;14.05;100.00;99347.89;4181087;85;21051;-84
2021/09/27 02:51:19;;;;;;;37.35;23.22;;;;;;;14.01;100.00;99338.84;4181831;84;21491;-85
2021/09/27 02:57:56;;;;;;;35.98;22.77;;;;;;;14.00;100.00;99340.00;4175914;85;21082;-83
2021/09/27 03:04:22;;;;;;;37.28;22.30;;;;;;;13.91;100.00;99336.84;4183112;84;21106;-84
2021/09/27 03:11:06;;;;;;;36.98;22.55;;;;;;;13.95;100.00;99337.63;4180824;84;21039;-85
2021/09/27 03:17:50;;;;;;;34.73;22.48;;;;;;;13.92;100.00;99341.16;4181496;85;21093;-84
2021/09/27 03:24:35;;;;;;;36.98;22.87;;;;;;;13.85;100.00;99347.23;4162734;84;21094;-84
2021/09/27 03:31:36;;;;;;;41.68;23.73;;;;;;;13.82;100.00;99341.12;4171795;84;21118;-85
2021/09/27 03:38:05;;;;;;;37.33;22.55;;;;;;;13.80;100.00;99345.64;4176195;84;21078;-84
2021/09/27 03:44:29;;;;;;;39.78;23.10;;;;;;;13.84;100.00;99325.80;4174798;84;21062;-84
2021/09/27 03:50:58;;;;;;;41.35;23.65;;;;;;;13.87;100.00;99320.13;4132429;85;21011;-84
2021/09/27 03:57:15;;;;;;;36.48;22.20;;;;;;;13.85;100.00;99309.50;4183224;84;21631;-84
2021/09/27 04:03:46;;;;;;;33.98;20.23;;;;;;;13.82;100.00;99301.23;4139744;85;21415;-84
2021/09/27 04:10:26;;;;;;;33.85;20.62;;;;;;;13.80;100.00;99302.20;4130762;85;21092;-83
2021/09/27 04:16:55;;;;;;;35.85;20.68;;;;;;;13.75;100.00;99312.23;4121730;85;21086;-83
2021/09/27 04:23:41;;;;;;;43.30;23.98;;;;;;;13.71;100.00;99314.16;4079322;85;21617;-84
2021/09/27 04:30:29;;;;;;;36.50;22.32;;;;;;;13.76;100.00;99305.55;4105922;85;21063;-83
2021/09/27 04:36:38;;;;;;;36.10;21.37;;;;;;;13.72;100.00;99314.36;4132470;85;21518;-84
2021/09/27 04:43:02;;;;;;;36.60;22.90;;;;;;;13.70;100.00;99313.37;4139935;85;21028;-83
2021/09/27 04:49:29;;;;;;;41.65;22.48;;;;;;;13.62;100.00;99321.42;4143062;85;21591;-84
2021/09/27 04:55:52;;;;;;;41.28;24.07;;;;;;;13.63;100.00;99339.48;4130073;84;21666;-83
2021/09/27 05:02:17;;;;;;;38.85;23.42;;;;;;;13.64;100.00;99330.66;4129824;85;21597;-83
2021/09/27 05:08:50;;;;;;;41.28;23.90;;;;;;;13.69;100.00;99326.94;4140476;84;21051;-85
2021/09/27 05:15:32;;;;;;;41.73;24.32;;;;;;;13.58;100.00;99334.93;4126498;85;21039;-83
2021/09/27 05:22:08;;;;;;;38.85;23.83;;;;;;;13.58;100.00;99332.98;4143658;85;21075;-85
2021/09/27 05:35:43;;;;;;;39.13;22.25;;;;;;;13.52;100.00;99328.23;4135039;85;21071;-83
2021/09/27 05:42:39;;;;;;;38.60;23.15;;;;;;;13.61;100.00;99336.33;4124160;85;21102;-84
2021/09/27 05:48:55;;;;;;;39.23;24.10;;;;;;;13.66;100.00;99335.96;4081132;85;21157;-84
2021/09/27 05:55:11;;;;;;;34.73;21.68;;;;;;;13.74;100.00;99343.07;4132246;85;21583;-84
2021/09/27 06:01:43;;;;;;;37.33;22.42;;;;;;;13.82;100.00;99342.51;4048273;87;21095;-84
2021/09/27 06:08:27;;;;;;;35.75;23.42;;;;;;;13.84;100.00;99346.44;3967928;88;21076;-83
2021/09/27 06:14:33;;;;;;;35.30;21.45;;;;;;;13.88;100.00;99350.00;4042800;88;21102;-85
2021/09/27 06:20:57;;;;;;;33.23;21.25;;;;;;;13.85;100.00;99352.73;4027464;88;21119;-84
2021/09/27 06:27:14;;;;;;;32.25;21.42;;;;;;;13.89;100.00;99350.80;4127348;85;21094;-84
2021/09/27 06:33:54;;;;;;;35.90;21.07;;;;;;;13.92;100.00;99350.79;4181597;84;21168;-84
2021/09/27 06:39:56;;;;;;;29.98;19.75;;;;;;;13.91;100.00;99350.60;4157212;85;21855;-85
2021/09/27 06:45:57;;;;;;;31.87;20.57;;;;;;;13.86;100.00;99350.97;4182680;84;21098;-85
2021/09/27 06:51:59;;;;;;;30.48;20.10;;;;;;;13.89;100.00;99352.95;4182294;85;21598;-84
2021/09/27 06:58:08;;;;;;;32.00;21.65;;;;;;;13.87;100.00;99350.39;4181173;84;21062;-85
2021/09/27 07:04:09;;;;;;;29.35;19.90;;;;;;;13.90;100.00;99345.48;4180993;85;21030;-83
2021/09/27 07:10:16;;;;;;;32.35;20.68;;;;;;;13.92;100.00;99346.66;4183257;85;21050;-83
2021/09/27 07:16:20;;;;;;;31.07;20.88;;;;;;;13.98;100.00;99330.58;4182216;85;21046;-84
2021/09/27 07:22:24;;;;;;;27.07;19.25;;;;;;;14.03;100.00;99339.84;4182075;85;21016;-84
2021/09/27 07:28:25;;;;;;;33.65;21.77;;;;;;;14.08;100.00;99338.85;4181776;85;20991;-85
2021/09/27 07:34:29;;;;;;;28.10;19.52;;;;;;;14.14;100.00;99342.03;4181167;85;21011;-85
2021/09/27 07:40:39;;;;;;;28.30;18.27;;;;;;;14.16;100.00;99344.58;4100106;85;21109;-85
2021/09/27 07:46:42;;;;;;;26.75;18.15;;;;;;;14.20;100.00;99337.09;4088043;86;21660;-84
2021/09/27 07:52:45;;;;;;;31.27;20.25;;;;;;;14.26;100.00;99329.29;4081555;86;21165;-83
2021/09/27 07:58:47;;;;;;;35.10;22.32;;;;;;;14.38;100.00;99319.27;4074412;86;21089;-84
2021/09/27 08:04:49;;;;;;;30.08;20.32;;;;;;;14.45;100.00;99318.48;4089629;86;21057;-84
2021/09/27 08:10:51;;;;;;;25.57;19.48;;;;;;;14.49;100.00;99327.53;4096766;85;21064;-84
2021/09/27 08:16:56;;;;;;;27.15;17.92;;;;;;;14.49;100.00;99328.33;4095551;85;21089;-84
2021/09/27 08:23:04;;;;;;;29.98;18.35;;;;;;;14.44;100.00;99333.45;4084740;86;21119;-84
2021/09/27 08:29:06;;;;;;;30.15;20.00;;;;;;;14.44;100.00;99329.31;4145809;85;21056;-86
2021/09/27 08:35:14;;;;;;;34.65;21.65;;;;;;;14.44;100.00;99338.34;4138918;84;21078;-83
2021/09/27 08:41:42;;;;;;;31.00;20.88;;;;;;;14.48;100.00;99338.36;4146714;85;21589;-84
2021/09/27 08:48:24;;;;;;;25.08;16.37;;;;;;;14.48;100.00;99341.11;4126876;85;21049;-84
2021/09/27 08:54:30;;;;;;;25.02;17.42;;;;;;;14.59;100.00;99345.46;4135984;85;21123;-84
2021/09/27 09:00:49;;;;;;;29.82;20.00;;;;;;;14.67;100.00;99338.78;4142485;84;21108;-84
2021/09/27 09:07:04;;;;;;;26.35;18.05;;;;;;;14.78;100.00;99336.81;4142077;85;21058;-85
2021/09/27 09:13:07;;;;;;;33.33;21.70;;;;;;;14.85;100.00;99339.55;4167077;85;21566;-84
2021/09/27 09:19:15;;;;;;;33.50;20.90;;;;;;;14.95;100.00;99340.72;4170466;83;21061;-84
2021/09/27 09:25:36;;;;;;;30.62;20.48;;;;;;;15.00;100.00;99343.86;4174477;84;21557;-84
2021/09/27 09:31:47;;;;;;;27.52;19.48;;;;;;;14.99;100.00;99342.29;4148805;84;20994;-84
2021/09/27 09:37:57;;;;;;;33.13;21.07;;;;;;;15.05;100.00;99335.19;4164392;85;21030;-83
2021/09/27 09:44:04;;;;;;;40.23;22.65;;;;;;;15.13;100.00;99332.62;4151000;85;21538;-84
2021/09/27 09:50:29;;;;;;;32.38;20.68;;;;;;;15.15;100.00;99325.33;4129489;85;21116;-84
2021/09/27 09:56:37;;;;;;;27.70;19.07;;;;;;;15.17;100.00;99325.72;4145979;84;21045;-84
2021/09/27 10:02:45;;;;;;;25.43;18.40;;;;;;;15.20;100.00;99321.59;4147677;84;21062;-84
2021/09/27 10:08:56;;;;;;;26.57;17.57;;;;;;;15.31;100.00;99325.11;4156983;84;21053;-84
2021/09/27 10:14:57;;;;;;;27.00;19.77;;;;;;;15.45;100.00;99322.34;4157572;84;21093;-82
2021/09/27 10:21:26;;;;;;;22.20;17.67;;;;;;;15.60;100.00;99307.30;4169440;85;21049;-82
2021/09/27 10:27:44;;;;;;;22.13;17.52;;;;;;;15.70;100.00;99304.30;4157039;84;21017;-82
2021/09/27 10:33:52;;;;;;;22.85;16.93;;;;;;;15.89;100.00;99301.64;4138072;83;21058;-82
2021/09/27 10:40:00;;;;;;;22.48;16.35;;;;;;;16.17;100.00;99302.27;4131784;84;21074;-83
2021/09/27 10:46:03;;;;;;;24.67;16.73;;;;;;;16.70;100.00;99304.65;4128103;84;21082;-82
2021/09/27 10:52:24;;;;;;;19.73;16.17;;;;;;;17.50;100.00;99297.54;4137596;85;21081;-82
2021/09/27 10:58:55;;;;;;;18.07;13.28;;;;;;;18.25;100.00;99291.17;4142728;83;21124;-82
2021/09/27 11:05:24;;;;;;;21.42;15.30;;;;;;;18.96;100.00;99281.91;4123879;84;21048;-83
2021/09/27 11:11:43;;;;;;;17.85;14.73;;;;;;;19.60;100.00;99275.34;4106588;84;21186;-82
2021/09/27 11:17:51;;;;;;;16.70;14.90;;;;;;;19.72;98.34;99281.62;4140851;85;21068;-83
2021/09/27 11:24:23;;;;;;;17.92;14.40;;;;;;;19.76;97.56;99280.16;4129903;84;21059;-83
2021/09/27 11:30:47;;;;;;;14.73;13.03;;;;;;;19.88;97.26;99267.00;4129091;83;21110;-86
2021/09/27 11:37:00;;;;;;;17.73;12.93;;;;;;;19.91;95.70;99248.07;4121408;84;21078;-83
2021/09/27 11:43:59;;;;;;;15.98;13.15;;;;;;;19.89;95.56;99244.94;4143139;84;21069;-83
2021/09/27 11:50:13;;;;;;;14.50;12.85;;;;;;;19.96;94.90;99247.56;4111512;85;21064;-83
2021/09/27 11:56:37;;;;;;;14.95;12.47;;;;;;;19.88;92.85;99247.55;4148646;85;21050;-84
2021/09/27 12:03:16;;;;;;;15.72;12.00;;;;;;;20.02;93.27;99235.52;4137588;84;21574;-83
2021/09/27 12:09:33;;;;;;;14.13;11.70;;;;;;;20.07;92.92;99223.89;4139189;85;21025;-83
2021/09/27 12:15:41;;;;;;;15.13;11.90;;;;;;;20.05;92.55;99225.52;4129017;84;21098;-82
2021/09/27 12:21:55;;;;;;;13.45;10.53;;;;;;;20.14;91.38;99222.34;4145576;84;21100;-83
2021/09/27 12:28:05;;;;;;;11.15;9.95;;;;;;;20.25;91.77;99208.19;4148277;84;21025;-82
2021/09/27 12:34:13;;;;;;;10.15;9.05;;;;;;;20.28;91.12;99204.53;4128826;85;21077;-83
2021/09/27 12:40:22;;;;;;;12.35;8.23;;;;;;;20.36;90.91;99201.76;4126584;85;21076;-83
2021/09/27 12:46:30;;;;;;;10.23;8.73;;;;;;;20.48;90.03;99199.69;4133437;84;21127;-83
2021/09/27 12:52:49;;;;;;;9.98;7.67;;;;;;;20.57;89.83;99188.72;4142086;84;21615;-83
2021/09/27 12:59:08;;;;;;;11.80;7.65;;;;;;;20.70;89.40;99189.58;4139276;84;21040;-86
2021/09/27 13:05:27;;;;;;;9.18;6.65;;;;;;;20.77;88.52;99187.98;4127656;83;21560;-85
2021/09/27 13:11:48;;;;;;;11.38;6.33;;;;;;;20.77;87.37;99179.63;4154923;83;21070;-85
2021/09/27 13:18:18;;;;;;;8.35;6.40;;;;;;;20.78;86.86;99181.81;4136722;85;21065;-85
2021/09/27 13:24:28;;;;;;;7.92;6.10;;;;;;;20.77;86.56;99175.46;4139504;84;21593;-85
2021/09/27 13:30:48;;;;;;;7.12;5.85;;;;;;;20.79;85.53;99167.47;4101876;85;21561;-84
2021/09/27 13:36:52;;;;;;;8.28;6.33;;;;;;;20.80;85.07;99165.44;4075457;86;21085;-85
2021/09/27 13:43:28;;;;;;;8.68;5.40;;;;;;;20.77;84.36;99155.98;4074410;85;21090;-85
2021/09/27 13:49:33;;;;;;;8.90;5.60;;;;;;;20.75;83.94;99150.08;4093303;85;22030;-85
2021/09/27 13:55:36;;;;;;;10.45;5.42;;;;;;;20.70;83.18;99145.06;4105763;85;21911;-85
2021/09/27 14:01:50;;;;;;;6.20;5.05;;;;;;;20.68;82.44;99147.50;4087723;85;21080;-86
2021/09/27 14:08:17;;;;;;;8.20;5.35;;;;;;;20.68;82.29;99150.28;4088445;85;21092;-84
2021/09/27 14:14:18;;;;;;;5.97;5.37;;;;;;;20.67;81.64;99152.88;4108543;84;21113;-85
2021/09/27 14:20:21;;;;;;;7.75;5.55;;;;;;;20.68;81.39;99153.66;4079653;86;21568;-85
2021/09/27 14:26:28;;;;;;;9.60;6.00;;;;;;;20.71;80.87;99161.13;4093396;84;21061;-85
2021/09/27 14:32:45;;;;;;;6.22;5.47;;;;;;;20.73;80.78;99155.91;4145564;85;21062;-86
2021/09/27 14:38:50;;;;;;;6.45;5.62;;;;;;;20.68;80.64;99154.45;4136706;83;21106;-84
2021/09/27 14:44:52;;;;;;;8.93;6.00;;;;;;;20.62;80.54;99153.42;4144591;84;21078;-85
2021/09/27 14:50:56;;;;;;;8.65;5.80;;;;;;;20.54;80.15;99149.27;4120759;84;21066;-84
2021/09/27 14:57:01;;;;;;;8.93;6.53;;;;;;;20.47;79.15;99151.46;4130154;85;21113;-84
2021/09/27 15:03:08;;;;;;;8.38;5.80;;;;;;;20.34;78.49;99157.55;4111144;85;21539;-84
2021/09/27 15:09:12;;;;;;;9.43;6.87;;;;;;;20.23;78.44;99153.66;4150175;84;21091;-85
2021/09/27 15:15:21;;;;;;;9.38;7.15;;;;;;;20.10;78.38;99158.31;4149155;85;22351;-84
2021/09/27 15:21:33;;;;;;;13.53;7.50;;;;;;;19.93;78.48;99158.14;4138767;84;21076;-86
2021/09/27 15:27:41;;;;;;;16.87;8.10;;;;;;;19.79;78.71;99157.88;4142353;85;21057;-84
2021/09/27 15:33:44;;;;;;;12.03;8.45;;;;;;;19.63;78.88;99159.23;4163261;84;21100;-84
2021/09/27 15:39:48;;;;;;;12.95;8.43;;;;;;;19.51;78.95;99157.73;4156885;85;22417;-84
2021/09/27 15:45:50;;;;;;;10.98;8.43;;;;;;;19.39;79.13;99157.78;4163923;84;21072;-84
2021/09/27 15:51:53;;;;;;;18.25;9.80;;;;;;;19.23;79.28;99161.85;4148938;84;21632;-84
2021/09/27 15:57:54;;;;;;;14.90;9.78;;;;;;;19.07;79.53;99172.91;4158910;84;21078;-84
2021/09/27 16:04:02;;;;;;;14.98;9.45;;;;;;;18.91;79.79;99175.60;4146876;84;21517;-84
2021/09/27 16:10:09;;;;;;;15.08;9.50;;;;;;;18.73;80.11;99175.77;4138959;84;21116;-83
2021/09/27 16:16:20;;;;;;;12.13;8.58;;;;;;;18.56;80.21;99174.27;4148241;84;21069;-84
2021/09/27 16:22:21;;;;;;;14.85;9.83;;;;;;;18.40;80.35;99183.09;4154267;85;21069;-83
2021/09/27 16:28:22;;;;;;;14.58;9.18;;;;;;;18.23;80.43;99180.77;4152903;84;21088;-85
2021/09/27 16:34:27;;;;;;;13.50;9.28;;;;;;;18.09;80.67;99193.46;4141211;85;21082;-84
2021/09/27 16:40:28;;;;;;;11.95;9.18;;;;;;;17.96;80.86;99193.09;4149784;85;21099;-84
2021/09/27 16:46:35;;;;;;;13.60;9.03;;;;;;;17.84;81.17;99206.11;4146382;85;21045;-84
2021/09/27 16:52:37;;;;;;;12.53;9.50;;;;;;;17.68;81.20;99208.11;4129503;85;21027;-84
2021/09/27 16:58:39;;;;;;;13.32;9.88;;;;;;;17.49;81.47;99208.00;4152967;83;21641;-84
2021/09/27 17:04:42;;;;;;;15.45;11.03;;;;;;;17.29;81.70;99213.97;4150229;85;21114;-84
2021/09/27 17:10:43;;;;;;;15.68;11.10;;;;;;;17.09;82.14;99208.27;4142594;85;22503;-84
2021/09/27 17:23:20;;;;;;;22.62;11.03;;;;;;;16.79;82.84;99204.05;4161993;84;21062;-85
2021/09/27 17:29:26;;;;;;;18.80;10.45;;;;;;;16.66;83.13;99208.55;4155438;84;21065;-84
2021/09/27 17:35:29;;;;;;;18.87;12.20;;;;;;;16.54;83.49;99203.52;4156694;84;21110;-82
2021/09/27 17:41:39;;;;;;;14.40;10.40;;;;;;;16.42;83.76;99204.80;4140276;85;21085;-84
2021/09/27 17:47:42;;;;;;;15.95;11.35;;;;;;;16.32;84.12;99211.80;4150976;85;21034;-84
2021/09/27 17:53:46;;;;;;;19.77;11.68;;;;;;;16.21;84.37;99213.86;4144701;85;21073;-84
2021/09/27 17:59:52;;;;;;;17.20;11.38;;;;;;;16.13;84.55;99213.72;4162836;84;21056;-84
2021/09/27 18:06:02;;;;;;;;;;;;;;;16.02;84.88;99219.92;4042260;87;21653;-84
2021/09/27 18:12:06;;;;;;;16.95;11.45;;;;;;;15.93;85.26;99225.12;4154960;85;20169;-84
2021/09/27 18:18:07;;;;;;;16.85;12.45;;;;;;;15.80;85.39;99226.19;4160645;85;21077;-84
2021/09/27 18:24:08;;;;;;;18.57;12.90;;;;;;;15.71;85.73;99225.82;4150514;84;21038;-83
2021/09/27 18:30:20;;;;;;;21.10;12.75;;;;;;;15.64;86.09;99222.50;4160581;84;21105;-83
2021/09/27 18:36:24;;;;;;;24.75;17.15;;;;;;;15.56;86.24;99232.62;4132683;84;21220;-83
2021/09/27 18:42:26;;;;;;;20.57;13.70;;;;;;;15.47;86.51;99236.41;4160092;85;21092;-85
2021/09/27 18:48:28;;;;;;;18.70;13.28;;;;;;;15.37;86.75;99231.10;4145419;85;21636;-83
2021/09/27 18:54:41;;;;;;;18.65;12.53;;;;;;;15.26;86.94;99233.12;4144126;85;21054;-84
2021/09/27 19:01:01;;;;;;;20.50;13.03;;;;;;;15.15;87.16;99233.75;4141218;85;21149;-83
2021/09/27 19:07:02;;;;;;;22.75;13.28;;;;;;;15.04;87.52;99239.09;4157122;84;21066;-83
2021/09/27 19:13:25;;;;;;;;;;;;;;;;;;;;;
2021/09/27 19:19:12;;;;;;;19.62;12.68;;;;;;;14.87;88.14;99253.13;4134930;85;21417;-84
2021/09/27 19:25:16;;;;;;;17.90;12.50;;;;;;;14.85;88.48;99251.34;4154400;84;21562;-83
2021/09/27 19:31:24;;;;;;;22.77;12.37;;;;;;;14.76;88.75;99250.98;4146502;84;21075;-84
2021/09/27 19:37:32;;;;;;;21.82;14.43;;;;;;;14.76;89.45;99259.83;4125220;85;21074;-85
2021/09/27 19:43:38;;;;;;;23.57;13.62;;;;;;;14.67;89.09;99256.70;4128643;85;21568;-83
2021/09/27 19:49:39;;;;;;;22.33;14.70;;;;;;;14.54;89.31;99256.31;4136966;84;21641;-83
2021/09/27 19:55:42;;;;;;;26.73;15.32;;;;;;;14.45;89.41;99254.55;4136094;85;21363;-85
2021/09/27 20:01:44;;;;;;;27.48;16.12;;;;;;;14.32;89.56;99262.20;4121843;85;21148;-84
2021/09/27 20:07:50;;;;;;;25.57;15.18;;;;;;;14.23;89.94;99263.34;4125866;84;21068;-84
2021/09/27 20:13:53;;;;;;;21.77;13.75;;;;;;;14.15;89.93;99265.12;4123713;85;21089;-83
2021/09/27 20:19:55;;;;;;;23.55;14.13;;;;;;;14.05;90.06;99262.56;4139835;85;21108;-84
2021/09/27 20:25:56;;;;;;;23.25;13.43;;;;;;;13.94;90.21;99259.00;4142059;83;21104;-84
2021/09/27 20:31:57;;;;;;;24.85;11.83;;;;;;;13.83;90.49;99255.44;4145094;85;21092;-84
2021/09/27 20:38:04;;;;;;;18.42;11.85;;;;;;;13.76;90.71;99265.64;4159816;84;21080;-83
2021/09/27 20:44:06;;;;;;;18.42;11.38;;;;;;;13.68;90.87;99266.22;4138764;85;21084;-83
2021/09/27 20:50:13;;;;;;;28.85;12.73;;;;;;;13.62;91.20;99273.86;4154793;85;21109;-84
2021/09/27 20:56:15;;;;;;;21.12;10.95;;;;;;;13.56;91.30;99276.79;4148289;84;21608;-83
2021/09/27 21:02:17;;;;;;;25.57;11.73;;;;;;;13.53;91.53;99283.06;4144447;85;21114;-83
2021/09/27 21:08:20;;;;;;;25.88;14.50;;;;;;;13.47;91.67;99288.72;4149749;85;21077;-83
2021/09/27 21:14:21;;;;;;;23.50;13.48;;;;;;;13.42;91.80;99296.75;4154115;84;21122;-83
2021/09/27 21:20:25;;;;;;;17.15;10.48;;;;;;;13.34;91.89;99297.89;4150849;85;21121;-83
2021/09/27 21:26:30;;;;;;;15.88;8.53;;;;;;;13.28;92.19;99300.05;4157105;84;21038;-83
2021/09/27 21:32:33;;;;;;;18.73;9.33;;;;;;;13.16;92.10;99305.84;4161833;84;21097;-83
2021/09/27 21:38:34;;;;;;;16.60;8.60;;;;;;;13.16;92.50;99302.52;4154475;84;21041;-83
2021/09/27 21:44:36;;;;;;;13.58;8.08;;;;;;;13.11;92.46;99300.13;4164627;84;21048;-83
2021/09/27 21:50:40;;;;;;;13.70;7.87;;;;;;;13.07;92.75;99304.03;4148606;84;21069;-83
2021/09/27 21:56:43;;;;;;;15.65;8.03;;;;;;;13.07;92.72;99314.45;4145499;85;21552;-84
2021/09/27 22:02:46;;;;;;;17.32;8.50;;;;;;;12.98;92.83;99312.61;4161028;84;21136;-83
2021/09/27 22:08:47;;;;;;;14.23;7.62;;;;;;;12.90;92.80;99308.80;4163023;84;21058;-83
2021/09/27 22:14:49;;;;;;;19.30;8.28;;;;;;;12.84;92.89;99315.83;4155480;84;21082;-83
2021/09/27 22:20:51;;;;;;;15.30;7.62;;;;;;;12.75;92.79;99316.75;4147277;85;21579;-83
2021/09/27 22:26:53;;;;;;;10.40;7.12;;;;;;;12.64;93.04;99320.77;4163171;84;21067;-83
2021/09/27 22:32:57;;;;;;;15.10;7.95;;;;;;;12.59;93.12;99317.80;4141084;85;21060;-83
2021/09/27 22:38:59;;;;;;;14.20;7.72;;;;;;;12.52;92.98;99319.70;4143203;84;21076;-83
2021/09/27 22:45:02;;;;;;;17.25;7.25;;;;;;;12.37;93.01;99319.38;4150164;84;21118;-84
2021/09/27 22:51:04;;;;;;;15.55;6.45;;;;;;;12.28;93.05;99330.66;4153351;85;21041;-84
2021/09/27 22:57:06;;;;;;;13.38;6.72;;;;;;;12.21;93.29;99324.32;4151328;85;21520;-83
2021/09/27 23:03:08;;;;;;;13.40;6.70;;;;;;;12.15;93.31;99329.95;4148715;84;21104;-83
2021/09/27 23:09:10;;;;;;;17.37;6.85;;;;;;;12.08;93.37;99332.61;4119879;85;21032;-84
2021/09/27 23:15:14;;;;;;;16.32;6.70;;;;;;;12.03;93.40;99338.43;4154379;84;21077;-84
2021/09/27 23:21:15;;;;;;;11.83;6.35;;;;;;;11.94;93.30;99331.09;4160576;84;21092;-83
2021/09/27 23:27:17;;;;;;;18.35;6.87;;;;;;;11.87;93.52;99333.77;4155128;84;21095;-83
2021/09/27 23:33:47;;;;;;;14.45;5.72;;;;;;;11.80;93.56;99337.22;4102592;82;21863;-82
2021/09/27 23:39:48;;;;;;;9.73;6.15;;;;;;;11.68;93.47;99336.08;4168822;84;21065;-83
2021/09/27 23:45:52;;;;;;;11.55;6.28;;;;;;;11.59;93.72;99340.27;4152666;85;21095;-83
2021/09/27 23:51:53;;;;;;;12.18;5.70;;;;;;;11.53;93.90;99341.73;4151790;83;21119;-84
2021/09/27 23:57:54;;;;;;;15.85;6.03;;;;;;;11.46;93.74;99349.30;4142071;84;21174;-83
